Time;durP1;ratioP1;P1;durP2;ratioP2;P2;SDS_P1;SDS_P2;PMS_P1;PMS_P2;Temp;Humidity;BMP_temperature;BMP_pressure;BME280_temperature;BME280_humidity;BME280_pressure;Samples;Min_cycle;Max_cycle;Signal;HPM_P1;HPM_P2
2023/03/07 00:02:23;;;;;;;42.42;13.85;;;3.70;99.90;;;;;;5085308;28;20071;-48
2023/03/07 00:04:49;;;;;;;36.10;11.68;;;2.50;99.90;;;;;;5085220;28;20123;-47
2023/03/07 00:07:15;;;;;;;28.52;9.45;;;2.60;99.90;;;;;;5085437;28;20562;-47
2023/03/07 00:09:41;;;;;;;40.50;12.52;;;2.50;99.90;;;;;;5085213;28;20083;-47
2023/03/07 00:12:08;;;;;;;28.60;11.30;;;2.50;99.90;;;;;;5085637;28;20032;-47
2023/03/07 00:14:34;;;;;;;27.52;11.32;;;2.70;99.90;;;;;;5085502;28;20040;-48
2023/03/07 00:16:59;;;;;;;33.08;11.18;;;2.50;99.90;;;;;;5086382;28;20036;-47
2023/03/07 00:19:25;;;;;;;31.50;9.57;;;2.50;99.90;;;;;;5086635;28;20067;-47
2023/03/07 00:21:51;;;;;;;33.15;11.13;;;2.60;99.90;;;;;;5086133;28;20083;-47
2023/03/07 00:24:17;;;;;;;29.02;8.85;;;2.60;99.90;;;;;;5087043;28;20119;-47
2023/03/07 00:26:42;;;;;;;25.48;9.70;;;2.70;99.90;;;;;;5086898;28;20719;-47
2023/03/07 00:29:09;;;;;;;24.33;7.90;;;3.00;99.90;;;;;;5068876;28;20101;-48
2023/03/07 00:31:36;;;;;;;21.02;7.93;;;2.70;99.90;;;;;;5085685;28;20092;-47
2023/03/07 00:34:02;;;;;;;20.40;6.70;;;2.70;99.90;;;;;;5086195;28;20683;-48
2023/03/07 00:36:28;;;;;;;23.95;7.68;;;3.40;99.90;;;;;;5086585;28;20496;-47
2023/03/07 00:38:54;;;;;;;18.70;6.05;;;2.70;99.90;;;;;;5085515;28;20036;-47
2023/03/07 00:41:23;;;;;;;20.00;6.35;;;2.70;99.90;;;;;;5086411;28;20047;-46
2023/03/07 00:43:49;;;;;;;14.77;5.00;;;2.80;99.90;;;;;;5086480;28;20044;-47
2023/03/07 00:46:17;;;;;;;18.90;4.63;;;2.80;99.90;;;;;;5086171;28;20443;-47
2023/03/07 00:48:43;;;;;;;11.88;3.28;;;2.80;99.90;;;;;;5086334;28;20453;-46
2023/03/07 00:51:13;;;;;;;10.18;2.55;;;2.80;99.90;;;;;;5085780;28;20486;-47
2023/03/07 00:53:39;;;;;;;9.43;2.88;;;2.80;99.90;;;;;;5086251;28;20040;-46
2023/03/07 00:56:11;;;;;;;7.55;1.70;;;2.70;99.90;;;;;;5085934;28;20715;-48
2023/03/07 00:58:37;;;;;;;10.48;2.60;;;2.70;99.90;;;;;;5086153;28;20050;-47
2023/03/07 01:01:05;;;;;;;6.20;1.50;;;2.60;99.90;;;;;;5085640;28;20040;-46
2023/03/07 01:03:31;;;;;;;9.35;1.73;;;2.50;99.90;;;;;;5085544;28;20044;-47
2023/03/07 01:06:00;;;;;;;8.93;1.40;;;2.40;99.90;;;;;;5085578;28;20047;-47
2023/03/07 01:08:26;;;;;;;5.57;1.17;;;2.30;99.90;;;;;;5086097;28;20048;-46
2023/03/07 01:10:56;;;;;;;8.07;1.10;;;2.20;99.90;;;;;;5085688;28;20090;-47
2023/03/07 01:13:22;;;;;;;5.50;0.90;;;2.10;99.90;;;;;;5085947;28;20041;-46
2023/03/07 01:15:48;;;;;;;5.32;0.80;;;2.10;99.90;;;;;;5085429;28;20047;-46
2023/03/07 01:18:13;;;;;;;5.93;0.80;;;2.20;99.90;;;;;;5085505;28;20032;-47
2023/03/07 01:20:39;;;;;;;11.75;1.13;;;2.00;99.90;;;;;;5085490;28;20954;-46
2023/03/07 01:23:05;;;;;;;6.45;1.20;;;2.10;99.90;;;;;;5085474;28;20040;-46
2023/03/07 01:25:31;;;;;;;7.13;1.15;;;2.10;99.90;;;;;;5086188;28;20080;-47
2023/03/07 01:27:57;;;;;;;8.68;1.20;;;2.10;99.90;;;;;;5085983;28;20048;-47
2023/03/07 01:30:25;;;;;;;5.97;1.33;;;2.20;99.90;;;;;;5086039;28;20211;-49
2023/03/07 01:32:59;;;;;;;7.20;1.00;;;2.30;99.90;;;;;;5086075;28;20052;-47
2023/03/07 01:35:25;;;;;;;7.00;1.15;;;2.50;99.90;;;;;;5086034;28;20075;-46
2023/03/07 01:37:52;;;;;;;5.10;0.75;;;2.40;99.90;;;;;;5086132;28;20067;-46
2023/03/07 01:40:20;;;;;;;5.63;1.00;;;2.50;99.90;;;;;;5067544;28;20044;-46
2023/03/07 01:42:46;;;;;;;4.30;0.82;;;2.40;99.90;;;;;;5085902;28;20359;-46
2023/03/07 01:45:12;;;;;;;6.78;0.80;;;2.40;99.90;;;;;;5085636;28;20082;-46
2023/03/07 01:47:38;;;;;;;8.80;0.82;;;2.40;99.90;;;;;;5085881;28;20117;-46
2023/03/07 01:50:13;;;;;;;6.57;0.88;;;2.40;99.90;;;;;;5085618;28;20059;-46
2023/03/07 01:52:44;;;;;;;8.00;0.98;;;2.50;99.90;;;;;;5085200;28;20139;-46
2023/03/07 01:55:17;;;;;;;7.85;0.80;;;2.40;99.90;;;;;;5085389;28;20036;-48
2023/03/07 01:57:45;;;;;;;8.30;0.80;;;2.40;99.90;;;;;;5085766;28;20040;-48
2023/03/07 02:00:18;;;;;;;9.02;0.63;;;2.40;99.90;;;;;;5085513;28;20107;-46
2023/03/07 02:02:48;;;;;;;10.18;1.20;;;2.40;99.90;;;;;;5085928;28;20424;-46
2023/03/07 02:05:27;;;;;;;10.77;0.70;;;2.30;99.90;;;;;;5085520;28;20044;-46
2023/03/07 02:07:56;;;;;;;5.55;0.68;;;2.20;99.90;;;;;;5085875;28;20101;-47
2023/03/07 02:10:23;;;;;;;5.68;0.80;;;2.10;99.90;;;;;;5084068;28;20059;-46
2023/03/07 02:12:50;;;;;;;4.70;1.10;;;2.20;99.90;;;;;;5085685;28;20123;-47
2023/03/07 02:15:16;;;;;;;10.70;1.33;;;2.30;99.90;;;;;;5086109;28;20040;-47
2023/03/07 02:17:43;;;;;;;8.18;0.98;;;3.20;99.90;;;;;;5089262;28;20101;-47
2023/03/07 02:20:29;;;;;;;11.07;3.70;;;2.30;99.90;;;;;;5089062;28;20733;-47
2023/03/07 02:22:55;;;;;;;10.57;1.50;;;;;;;;;;5088523;28;20052;-47
2023/03/07 02:25:42;;;;;;;7.10;1.63;;;2.40;99.90;;;;;;5088783;28;20497;-46
2023/03/07 02:28:12;;;;;;;5.88;1.10;;;2.60;99.90;;;;;;5089149;28;20410;-46
2023/03/07 02:30:55;;;;;;;6.50;0.95;;;2.30;99.90;;;;;;5070615;28;20417;-46
2023/03/07 02:33:23;;;;;;;8.98;1.40;;;2.30;99.90;;;;;;5088469;28;20109;-48
2023/03/07 02:35:56;;;;;;;7.57;1.10;;;2.30;99.90;;;;;;5088748;28;20048;-47
2023/03/07 02:38:23;;;;;;;4.97;0.82;;;2.30;99.90;;;;;;5088471;28;20063;-46
2023/03/07 02:40:51;;;;;;;6.72;1.38;;;2.20;99.90;;;;;;5088393;28;20728;-46
2023/03/07 02:43:18;;;;;;;11.02;2.25;;;2.60;99.90;;;;;;5088475;28;20044;-47
2023/03/07 02:45:44;;;;;;;12.07;1.17;;;2.30;99.90;;;;;;5088761;28;20058;-46
2023/03/07 02:48:09;;;;;;;5.35;0.70;;;2.10;99.90;;;;;;5088173;28;20044;-48
2023/03/07 02:50:35;;;;;;;5.85;0.90;;;2.00;99.90;;;;;;5088334;28;20040;-47
2023/03/07 02:53:01;;;;;;;8.88;0.80;;;1.90;99.90;;;;;;5088264;28;20040;-46
2023/03/07 02:55:26;;;;;;;14.65;1.30;;;1.90;99.90;;;;;;5089063;28;20363;-46
2023/03/07 02:57:52;;;;;;;10.73;1.02;;;1.80;99.90;;;;;;5088891;28;20101;-46
2023/03/07 03:00:19;;;;;;;12.30;1.10;;;1.70;99.90;;;;;;5088673;28;20083;-46
2023/03/07 03:02:44;;;;;;;8.05;0.90;;;1.80;99.90;;;;;;5088585;28;20044;-46
2023/03/07 03:05:10;;;;;;;14.57;1.38;;;1.60;99.90;;;;;;5088388;28;20066;-48
2023/03/07 03:07:36;;;;;;;7.63;0.85;;;3.00;99.90;;;;;;5088996;28;20359;-48
2023/03/07 03:10:03;;;;;;;10.00;1.00;;;1.60;99.90;;;;;;5088930;28;20036;-46
2023/03/07 03:12:29;;;;;;;6.88;0.98;;;1.70;99.90;;;;;;5088601;28;20040;-46
2023/03/07 03:14:55;;;;;;;10.18;1.13;;;1.60;99.90;;;;;;5070746;28;20032;-47
2023/03/07 03:17:20;;;;;;;11.43;1.08;;;1.50;99.90;;;;;;5088469;28;20413;-47
2023/03/07 03:19:46;;;;;;;11.27;1.50;;;1.50;99.90;;;;;;5088689;28;20074;-47
2023/03/07 03:22:12;;;;;;;8.60;0.77;;;1.50;99.90;;;;;;5088476;28;20055;-46
2023/03/07 03:24:41;;;;;;;12.20;1.00;;;1.50;99.90;;;;;;5088284;28;20068;-48
2023/03/07 03:27:07;;;;;;;9.32;0.70;;;1.50;99.90;;;;;;5052660;28;20687;-47
2023/03/07 03:29:33;;;;;;;7.10;0.60;;;1.50;99.90;;;;;;5087776;28;20052;-47
2023/03/07 03:31:59;;;;;;;8.82;0.80;;;1.60;99.90;;;;;;5087077;28;20637;-47
2023/03/07 03:34:25;;;;;;;10.27;0.80;;;1.50;99.90;;;;;;5087674;28;20047;-46
2023/03/07 03:36:51;;;;;;;15.05;1.38;;;2.40;99.90;;;;;;5087814;28;20134;-49
2023/03/07 03:39:16;;;;;;;10.45;1.10;;;1.40;99.90;;;;;;5087908;28;20106;-46
2023/03/07 03:41:42;;;;;;;8.35;1.17;;;1.40;99.90;;;;;;5087485;28;20047;-47
2023/03/07 03:44:08;;;;;;;12.60;1.13;;;1.40;99.90;;;;;;5087744;28;20054;-47
2023/03/07 03:46:35;;;;;;;4.93;1.17;;;1.40;99.90;;;;;;5087364;28;20113;-46
2023/03/07 03:49:01;;;;;;;17.40;1.17;;;1.40;99.90;;;;;;5069639;28;20369;-46
2023/03/07 03:51:27;;;;;;;13.52;1.05;;;1.40;99.90;;;;;;5086951;28;20044;-48
2023/03/07 03:53:54;;;;;;;10.57;2.55;;;1.40;99.90;;;;;;5087316;28;20432;-47
2023/03/07 03:56:21;;;;;;;21.90;1.10;;;1.30;99.90;;;;;;5086774;28;20063;-47
2023/03/07 03:58:49;;;;;;;14.80;1.40;;;1.40;99.90;;;;;;5087209;28;20039;-49
2023/03/07 04:01:14;;;;;;;5.85;0.57;;;1.30;99.90;;;;;;5087345;28;20162;-49
2023/03/07 04:03:43;;;;;;;9.40;0.40;;;1.30;99.90;;;;;;5086628;28;20123;-46
2023/03/07 04:06:14;;;;;;;12.68;0.77;;;1.30;99.90;;;;;;5086570;28;20044;-46
2023/03/07 04:08:40;;;;;;;11.75;0.55;;;1.20;99.90;;;;;;5086185;28;20595;-47
2023/03/07 04:11:06;;;;;;;6.82;0.57;;;1.20;99.90;;;;;;5086723;28;20156;-46
2023/03/07 04:13:33;;;;;;;10.63;2.63;;;1.20;99.90;;;;;;5086693;28;20075;-47
2023/03/07 04:15:59;;;;;;;14.55;0.60;;;1.10;99.90;;;;;;5087654;28;20492;-46
2023/03/07 04:18:25;;;;;;;11.80;0.65;;;1.10;99.90;;;;;;5087085;28;20126;-47
2023/03/07 04:20:51;;;;;;;7.32;0.57;;;1.10;99.90;;;;;;5087098;28;20075;-47
2023/03/07 04:23:18;;;;;;;9.30;1.05;;;1.00;99.90;;;;;;5087066;28;20048;-46
2023/03/07 04:25:54;;;;;;;8.50;1.05;;;0.90;99.90;;;;;;5086849;28;20048;-46
2023/03/07 04:28:21;;;;;;;8.75;1.67;;;1.00;99.90;;;;;;5087149;28;20044;-46
2023/03/07 04:30:48;;;;;;;14.80;0.60;;;1.00;99.90;;;;;;5086459;28;20563;-46
2023/03/07 04:33:15;;;;;;;10.00;0.45;;;1.00;99.90;;;;;;5086823;28;20056;-48
2023/03/07 04:35:41;;;;;;;16.70;1.05;;;0.90;99.90;;;;;;5086349;28;20040;-47
2023/03/07 04:38:07;;;;;;;9.32;0.60;;;0.90;99.90;;;;;;5085981;28;20045;-47
2023/03/07 04:40:34;;;;;;;11.30;0.50;;;0.90;99.90;;;;;;5086577;28;20048;-47
2023/03/07 04:43:00;;;;;;;10.82;0.60;;;0.70;99.90;;;;;;5086851;28;20049;-46
2023/03/07 04:45:26;;;;;;;9.98;0.30;;;0.80;99.90;;;;;;5087080;28;20071;-47
2023/03/07 04:47:52;;;;;;;10.48;0.47;;;0.80;99.90;;;;;;5086681;28;20668;-46
2023/03/07 04:50:18;;;;;;;7.47;0.45;;;0.80;99.90;;;;;;5087133;28;20046;-47
2023/03/07 04:52:44;;;;;;;4.07;0.50;;;0.80;99.90;;;;;;5086738;28;20032;-46
2023/03/07 04:55:10;;;;;;;7.03;0.70;;;1.30;99.90;;;;;;5086709;28;20541;-47
2023/03/07 04:57:36;;;;;;;11.57;0.50;;;0.80;99.90;;;;;;5085768;28;20090;-49
2023/03/07 05:00:04;;;;;;;9.70;0.52;;;0.80;99.90;;;;;;5086462;28;20040;-46
2023/03/07 05:02:29;;;;;;;12.63;0.50;;;0.90;99.90;;;;;;5086610;28;20189;-46
2023/03/07 05:04:55;;;;;;;8.38;0.50;;;0.80;99.90;;;;;;5085989;28;20058;-46
2023/03/07 05:07:20;;;;;;;7.80;2.78;;;0.90;99.90;;;;;;5068296;28;20083;-48
2023/03/07 05:09:46;;;;;;;8.75;0.85;;;0.80;99.90;;;;;;5085864;28;20052;-47
2023/03/07 05:12:12;;;;;;;13.63;0.95;;;0.90;99.90;;;;;;5086402;28;20044;-46
2023/03/07 05:14:37;;;;;;;10.85;0.70;;;0.80;99.90;;;;;;5086413;28;20090;-46
2023/03/07 05:17:03;;;;;;;12.13;0.77;;;1.40;99.90;;;;;;5051598;28;20044;-46
2023/03/07 05:19:29;;;;;;;13.20;1.00;;;0.80;99.90;;;;;;5086689;28;20040;-47
2023/03/07 05:21:55;;;;;;;4.93;0.98;;;0.80;99.90;;;;;;5068052;28;20691;-46
2023/03/07 05:24:20;;;;;;;11.32;2.08;;;0.90;99.90;;;;;;5086113;28;20082;-47
2023/03/07 05:26:46;;;;;;;13.23;0.32;;;1.00;99.90;;;;;;5086046;28;20048;-46
2023/03/07 05:29:12;;;;;;;9.80;1.15;;;1.00;99.90;;;;;;5085769;28;20109;-48
2023/03/07 05:31:38;;;;;;;5.97;0.40;;;0.90;99.90;;;;;;5085884;28;20055;-49
2023/03/07 05:34:04;;;;;;;6.63;0.40;;;0.90;99.90;;;;;;5086314;28;20055;-47
2023/03/07 05:36:29;;;;;;;9.68;0.60;;;0.90;99.90;;;;;;5086171;28;20032;-47
2023/03/07 05:38:55;;;;;;;11.68;0.47;;;0.90;99.90;;;;;;5085799;28;20066;-46
2023/03/07 05:41:22;;;;;;;9.15;0.65;;;1.00;99.90;;;;;;5086407;28;20094;-48
2023/03/07 05:43:47;;;;;;;15.75;0.73;;;1.00;99.90;;;;;;5086458;28;20146;-46
2023/03/07 05:46:13;;;;;;;8.75;0.40;;;1.00;99.90;;;;;;5086710;28;20437;-47
2023/03/07 05:48:39;;;;;;;10.27;2.58;;;1.00;99.90;;;;;;5086336;28;20043;-46
2023/03/07 05:51:04;;;;;;;11.05;0.95;;;1.00;99.90;;;;;;5089851;28;20947;-47
2023/03/07 05:53:30;;;;;;;10.18;0.30;;;1.00;99.90;;;;;;5089601;28;20067;-48
2023/03/07 05:55:56;;;;;;;14.13;0.75;;;0.90;99.90;;;;;;5089211;28;20683;-46
2023/03/07 05:58:22;;;;;;;12.45;0.55;;;1.00;99.90;;;;;;5071139;28;20048;-47
2023/03/07 06:00:48;;;;;;;8.73;0.60;;;1.10;99.90;;;;;;5089242;28;20051;-46
2023/03/07 06:03:14;;;;;;;16.48;1.30;;;1.20;99.90;;;;;;5089917;28;20059;-46
2023/03/07 06:05:40;;;;;;;9.68;0.63;;;1.10;99.90;;;;;;5071302;28;20040;-48
2023/03/07 06:08:06;;;;;;;11.90;2.25;;;1.20;99.90;;;;;;5089625;28;20083;-49
2023/03/07 06:10:32;;;;;;;12.63;0.60;;;1.20;99.90;;;;;;5089655;28;20534;-47
2023/03/07 06:12:59;;;;;;;6.82;0.77;;;1.20;99.90;;;;;;5089843;28;20089;-47
2023/03/07 06:15:24;;;;;;;13.20;1.65;;;1.30;99.90;;;;;;5089803;28;20044;-46
2023/03/07 06:17:51;;;;;;;10.50;0.85;;;1.30;99.90;;;;;;5089876;28;20059;-47
2023/03/07 06:20:19;;;;;;;14.32;1.23;;;1.40;99.90;;;;;;5089688;28;20398;-46
2023/03/07 06:22:45;;;;;;;10.02;0.73;;;1.40;99.90;;;;;;5089183;28;20071;-46
2023/03/07 06:25:11;;;;;;;9.00;0.57;;;1.30;99.90;;;;;;5089708;28;20078;-49
2023/03/07 06:27:37;;;;;;;13.88;0.65;;;1.10;99.90;;;;;;5089666;28;20076;-46
2023/03/07 06:30:05;;;;;;;17.48;1.00;;;1.30;99.90;;;;;;5089104;28;20047;-47
2023/03/07 06:32:32;;;;;;;6.10;0.98;;;1.40;99.90;;;;;;5089272;28;20096;-46
2023/03/07 06:34:58;;;;;;;12.10;1.00;;;1.40;99.90;;;;;;5088651;28;20051;-49
2023/03/07 06:37:24;;;;;;;9.02;0.70;;;1.40;99.90;;;;;;5089088;28;20052;-49
2023/03/07 06:39:49;;;;;;;10.88;0.75;;;1.50;99.90;;;;;;5088919;28;20075;-48
2023/03/07 06:42:15;;;;;;;12.13;0.60;;;1.50;99.90;;;;;;5089043;28;20042;-49
2023/03/07 06:44:41;;;;;;;14.70;1.05;;;1.40;99.90;;;;;;5070616;28;20051;-47
2023/03/07 06:47:07;;;;;;;8.32;0.88;;;1.50;99.90;;;;;;5088581;28;20401;-48
2023/03/07 06:49:32;;;;;;;6.65;1.20;;;1.50;99.90;;;;;;5088251;28;20036;-48
2023/03/07 06:51:59;;;;;;;17.58;0.95;;;1.60;99.90;;;;;;5087779;28;20052;-50
2023/03/07 06:54:24;;;;;;;13.52;0.90;;;1.70;99.90;;;;;;5087726;28;20044;-46
2023/03/07 06:56:50;;;;;;;10.18;0.40;;;1.70;99.90;;;;;;5087771;28;20036;-46
2023/03/07 06:59:16;;;;;;;5.57;0.40;;;1.60;99.90;;;;;;5088072;28;20093;-47
2023/03/07 07:01:42;;;;;;;9.50;1.42;;;1.60;99.90;;;;;;5086920;28;20051;-47
2023/03/07 07:04:09;;;;;;;7.60;0.75;;;1.60;99.90;;;;;;5088273;28;20048;-46
2023/03/07 07:06:35;;;;;;;8.40;0.55;;;1.60;99.90;;;;;;5070337;28;20074;-46
2023/03/07 07:09:01;;;;;;;10.15;0.40;;;0.40;99.90;;;;;;5088428;28;20111;-46
2023/03/07 07:11:27;;;;;;;9.93;0.52;;;1.70;99.90;;;;;;5088333;28;20086;-46
2023/03/07 07:13:52;;;;;;;4.72;0.40;;;1.70;99.90;;;;;;5088191;28;20123;-46
2023/03/07 07:16:18;;;;;;;10.07;0.43;;;1.70;99.90;;;;;;5088305;28;20046;-47
2023/03/07 07:18:45;;;;;;;9.00;0.60;;;1.70;99.90;;;;;;5070178;28;20082;-46
2023/03/07 07:21:10;;;;;;;5.53;0.47;;;1.70;99.90;;;;;;5087340;28;20477;-46
2023/03/07 07:23:36;;;;;;;7.18;1.27;;;1.80;99.90;;;;;;5088267;28;20046;-47
2023/03/07 07:26:02;;;;;;;8.02;0.45;;;1.70;99.90;;;;;;5087608;28;20047;-47
2023/03/07 07:28:27;;;;;;;6.68;0.50;;;1.70;99.90;;;;;;5087889;28;20036;-46
2023/03/07 07:30:53;;;;;;;8.57;1.27;;;1.70;99.90;;;;;;5088316;28;20051;-45
2023/03/07 07:33:19;;;;;;;21.83;2.75;;;1.70;99.90;;;;;;5088260;28;20393;-47
2023/03/07 07:35:46;;;;;;;4.57;0.45;;;1.80;99.90;;;;;;5088681;28;20052;-47
2023/03/07 07:38:12;;;;;;;5.22;0.80;;;1.70;99.90;;;;;;5087776;28;20147;-47
2023/03/07 07:40:38;;;;;;;5.40;0.30;;;1.70;99.90;;;;;;5069925;28;20051;-46
2023/03/07 07:43:03;;;;;;;6.57;0.50;;;1.70;99.90;;;;;;5087126;28;20048;-47
2023/03/07 07:45:29;;;;;;;4.95;0.43;;;1.80;99.90;;;;;;5087204;28;20055;-46
2023/03/07 07:47:55;;;;;;;6.05;0.45;;;3.10;99.90;;;;;;5087398;28;20059;-45
2023/03/07 07:50:21;;;;;;;7.93;0.32;;;1.80;99.90;;;;;;5086236;28;20047;-46
2023/03/07 07:52:48;;;;;;;4.55;0.50;;;1.80;99.90;;;;;;5087169;28;20044;-46
2023/03/07 07:55:14;;;;;;;8.20;0.95;;;1.90;99.90;;;;;;5078825;28;20043;-46
2023/03/07 07:57:41;;;;;;;7.78;0.45;;;2.00;99.90;;;;;;5086693;28;20040;-46
2023/03/07 08:00:08;;;;;;;9.45;1.00;;;1.90;99.90;;;;;;5087052;28;20131;-46
2023/03/07 08:02:35;;;;;;;6.55;0.50;;;2.00;99.90;;;;;;5086440;28;20047;-46
2023/03/07 08:05:00;;;;;;;6.53;0.50;;;2.00;99.90;;;;;;5086251;28;20449;-46
2023/03/07 08:07:26;;;;;;;7.00;0.90;;;2.10;99.90;;;;;;5086557;28;20052;-47
2023/03/07 08:09:52;;;;;;;7.30;0.50;;;2.20;99.90;;;;;;5086437;28;20504;-46
2023/03/07 08:12:17;;;;;;;6.30;0.28;;;2.00;99.90;;;;;;5086128;28;20040;-46
2023/03/07 08:14:43;;;;;;;2.42;0.47;;;2.10;99.90;;;;;;5086483;28;20040;-46
2023/03/07 08:17:09;;;;;;;3.05;0.25;;;2.10;99.90;;;;;;5086206;28;20043;-46
2023/03/07 08:19:34;;;;;;;3.33;0.40;;;2.00;99.90;;;;;;5086337;28;20166;-47
2023/03/07 08:22:00;;;;;;;6.10;0.70;;;2.10;99.90;;;;;;5085722;28;20105;-46
2023/03/07 08:24:26;;;;;;;5.00;0.52;;;2.00;99.90;;;;;;5086419;28;20054;-45
2023/03/07 08:26:52;;;;;;;6.35;0.30;;;2.00;99.90;;;;;;5086797;28;20044;-47
2023/03/07 08:29:18;;;;;;;6.07;1.23;;;2.10;99.90;;;;;;5086903;28;20040;-47
2023/03/07 08:31:44;;;;;;;4.00;0.30;;;2.10;99.90;;;;;;5086003;28;20047;-46
2023/03/07 08:34:11;;;;;;;5.03;0.20;;;2.10;99.90;;;;;;5085822;28;20708;-45
2023/03/07 08:36:38;;;;;;;3.85;0.10;;;2.10;99.90;;;;;;5085445;28;20600;-46
2023/03/07 08:39:04;;;;;;;3.85;1.05;;;2.20;99.90;;;;;;5085756;28;20075;-46
2023/03/07 08:41:31;;;;;;;8.38;0.25;;;2.30;99.90;;;;;;5085477;28;20101;-48
2023/03/07 08:43:56;;;;;;;2.60;0.25;;;2.30;99.90;;;;;;5085753;28;20044;-46
2023/03/07 08:46:22;;;;;;;6.50;0.80;;;2.30;99.90;;;;;;5085500;28;20067;-45
2023/03/07 08:48:48;;;;;;;5.97;0.30;;;2.30;99.90;;;;;;5085488;28;20040;-46
2023/03/07 08:51:15;;;;;;;4.22;0.43;;;2.30;99.90;;;;;;5066321;28;20444;-47
2023/03/07 08:53:42;;;;;;;8.00;0.47;;;2.40;99.90;;;;;;5085114;28;20070;-47
2023/03/07 08:56:13;;;;;;;2.90;0.30;;;2.70;99.90;;;;;;5085476;28;20220;-46
2023/03/07 08:58:39;;;;;;;2.95;0.60;;;2.60;99.90;;;;;;5086772;28;20145;-46
2023/03/07 09:01:06;;;;;;;7.75;0.30;;;2.70;99.90;;;;;;5087007;28;20077;-46
2023/03/07 09:03:32;;;;;;;5.65;0.20;;;2.70;99.90;;;;;;5086697;28;20044;-45
2023/03/07 09:05:58;;;;;;;6.68;0.52;;;3.60;99.90;;;;;;5086553;28;20047;-46
2023/03/07 09:08:24;;;;;;;6.10;0.88;;;2.90;99.90;;;;;;5086505;28;20051;-45
2023/03/07 09:10:50;;;;;;;3.17;0.13;;;3.00;99.90;;;;;;5086709;28;20036;-46
2023/03/07 09:13:17;;;;;;;4.10;0.20;;;3.00;99.90;;;;;;5086269;28;20121;-46
2023/03/07 09:15:43;;;;;;;5.72;0.20;;;3.10;99.90;;;;;;5086201;28;20458;-46
2023/03/07 09:18:09;;;;;;;5.70;0.10;;;3.00;99.90;;;;;;5086346;28;20036;-45
2023/03/07 09:20:37;;;;;;;3.85;0.40;;;3.10;99.90;;;;;;5085404;28;20152;-46
2023/03/07 09:23:03;;;;;;;5.55;0.20;;;3.80;99.90;;;;;;5086040;28;20040;-46
2023/03/07 09:25:29;;;;;;;3.30;0.30;;;3.20;99.90;;;;;;5088810;28;20131;-46
2023/03/07 09:27:55;;;;;;;4.20;0.30;;;3.30;99.90;;;;;;5089939;28;20146;-46
2023/03/07 09:30:21;;;;;;;5.90;0.25;;;3.20;99.90;;;;;;5089705;28;20084;-46
2023/03/07 09:32:48;;;;;;;2.92;0.30;;;3.20;99.90;;;;;;5089490;28;20064;-47
2023/03/07 09:35:14;;;;;;;3.80;0.20;;;3.30;99.90;;;;;;5089727;28;20039;-46
2023/03/07 09:37:40;;;;;;;5.70;0.25;;;3.10;99.90;;;;;;5089225;28;20040;-46
2023/03/07 09:40:07;;;;;;;5.72;1.00;;;2.90;99.90;;;;;;5089627;28;20110;-50
2023/03/07 09:43:06;;;;;;;5.13;0.20;;;2.90;99.90;;;;;;5089679;28;20044;-46
2023/03/07 09:45:46;;;;;;;8.70;1.17;;;3.60;99.90;;;;;;5089500;28;20126;-46
2023/03/07 09:48:35;;;;;;;4.70;0.57;;;2.50;99.90;;;;;;5089872;28;20565;-46
2023/03/07 09:51:13;;;;;;;2.58;0.13;;;2.40;99.90;;;;;;5056689;28;20201;-46
2023/03/07 09:53:47;;;;;;;4.78;0.20;;;2.40;99.90;;;;;;5089593;28;20040;-45
2023/03/07 09:56:44;;;;;;;3.35;0.20;;;2.10;99.90;;;;;;5090093;28;20048;-47
2023/03/07 09:59:21;;;;;;;11.48;0.50;;;2.00;99.90;;;;;;5070046;28;20048;-46
2023/03/07 10:01:54;;;;;;;4.45;0.30;;;1.90;99.90;;;;;;5089878;28;20055;-47
2023/03/07 10:04:33;;;;;;;7.57;0.40;;;1.70;99.90;;;;;;5089940;28;20102;-45
2023/03/07 10:07:02;;;;;;;9.68;0.30;;;1.60;99.90;;;;;;5089718;28;20119;-45
2023/03/07 10:09:28;;;;;;;12.18;1.35;;;1.70;99.90;;;;;;5036877;28;20054;-49
2023/03/07 10:12:03;;;;;;;4.63;0.65;;;1.70;99.90;;;;;;5064417;28;20040;-44
2023/03/07 10:14:53;;;;;;;7.43;0.70;;;2.00;99.90;;;;;;5060329;28;20490;-47
2023/03/07 10:17:44;;;;;;;8.55;0.35;;;2.20;99.90;;;;;;5066964;28;20043;-46
2023/03/07 10:20:30;;;;;;;6.13;0.32;;;2.20;99.90;;;;;;5067237;28;20039;-48
2023/03/07 10:23:23;;;;;;;7.18;0.85;;;2.20;99.90;;;;;;5066640;28;20571;-47
2023/03/07 10:25:55;;;;;;;4.60;0.52;;;2.10;99.90;;;;;;5068160;28;20097;-51
2023/03/07 10:28:25;;;;;;;6.22;0.38;;;2.20;99.90;;;;;;5066935;28;20092;-50
2023/03/07 10:30:56;;;;;;;3.42;0.30;;;2.30;99.90;;;;;;5067132;28;20076;-40
2023/03/07 10:33:22;;;;;;;2.53;0.20;;;2.40;99.90;;;;;;5047946;28;20075;-44
2023/03/07 10:36:06;;;;;;;3.92;0.38;;;2.70;99.90;;;;;;5065358;28;20044;-42
2023/03/07 10:38:59;;;;;;;11.25;0.63;;;3.00;99.90;;;;;;5065565;28;20388;-46
2023/03/07 10:41:26;;;;;;;8.82;0.50;;;3.30;99.90;;;;;;5065987;28;20044;-44
2023/03/07 10:43:55;;;;;;;8.30;0.68;;;1.80;99.90;;;;;;5064938;28;20398;-44
2023/03/07 10:46:24;;;;;;;6.10;0.38;;;3.60;99.90;;;;;;5065502;28;20044;-43
2023/03/07 10:49:00;;;;;;;4.68;0.38;;;3.90;99.90;;;;;;5066104;28;20098;-45
2023/03/07 10:52:03;;;;;;;7.65;0.68;;;4.80;99.90;;;;;;5066205;28;20123;-46
2023/03/07 10:54:32;;;;;;;10.23;0.40;;;4.30;99.90;;;;;;5066199;28;20048;-44
2023/03/07 10:57:05;;;;;;;8.27;0.95;;;5.30;99.90;;;;;;5066302;28;20036;-46
2023/03/07 10:59:31;;;;;;;5.90;0.40;;;4.70;99.90;;;;;;5030985;28;20040;-46
2023/03/07 11:01:59;;;;;;;9.85;1.10;;;4.90;99.90;;;;;;5031065;28;20375;-47
2023/03/07 11:04:29;;;;;;;6.53;0.47;;;5.00;99.90;;;;;;5064528;28;20144;-45
2023/03/07 11:06:59;;;;;;;10.63;0.73;;;4.90;99.90;;;;;;5065968;28;20144;-44
2023/03/07 11:09:31;;;;;;;10.85;0.90;;;5.30;99.90;;;;;;5041933;28;20044;-45
2023/03/07 11:12:04;;;;;;;6.53;0.40;;;5.40;99.90;;;;;;5029566;28;20037;-45
2023/03/07 11:14:34;;;;;;;10.70;0.60;;;5.60;99.90;;;;;;5064626;28;20048;-45
2023/03/07 11:17:01;;;;;;;6.93;0.82;;;5.70;99.90;;;;;;5029725;28;20475;-45
2023/03/07 11:19:41;;;;;;;14.57;0.90;;;5.80;99.90;;;;;;5045410;28;20060;-44
2023/03/07 11:22:32;;;;;;;23.27;2.25;;;6.10;99.90;;;;;;5061066;28;20118;-45
2023/03/07 11:25:00;;;;;;;6.85;0.35;;;6.50;99.90;;;;;;5060804;28;20194;-45
2023/03/07 11:27:44;;;;;;;10.23;1.20;;;5.90;99.90;;;;;;5061313;28;20117;-42
2023/03/07 11:30:15;;;;;;;10.57;0.98;;;6.40;99.90;;;;;;5059787;28;20075;-45
2023/03/07 11:32:50;;;;;;;4.33;0.50;;;6.00;99.90;;;;;;5058852;28;20313;-43
2023/03/07 11:35:28;;;;;;;6.80;0.47;;;6.10;99.90;;;;;;5059590;28;20052;-49
2023/03/07 11:38:05;;;;;;;6.85;0.38;;;6.80;99.90;;;;;;5059078;28;20425;-46
2023/03/07 11:40:43;;;;;;;9.02;0.45;;;6.70;99.90;;;;;;5061319;28;20493;-46
2023/03/07 11:43:20;;;;;;;5.30;0.43;;;6.20;99.90;;;;;;5060329;28;20052;-48
2023/03/07 11:45:55;;;;;;;7.45;1.30;;;6.50;99.90;;;;;;5057410;28;20068;-47
2023/03/07 11:49:10;;;;;;;13.48;1.83;;;7.10;99.90;;;;;;5041474;28;20055;-43
2023/03/07 11:51:56;;;;;;;7.10;0.57;;;6.60;99.90;;;;;;4978381;28;20061;-44
2023/03/07 11:54:44;;;;;;;5.47;0.50;;;6.60;99.90;;;;;;5062692;28;20072;-43
2023/03/07 11:57:49;;;;;;;7.05;0.30;;;6.30;99.90;;;;;;5063096;28;20129;-44
2023/03/07 12:00:21;;;;;;;6.15;0.57;;;6.50;99.90;;;;;;5062420;28;20115;-43
2023/03/07 12:03:23;;;;;;;7.68;0.60;;;7.40;99.90;;;;;;5060784;28;20049;-43
2023/03/07 12:06:13;;;;;;;4.80;0.70;;;6.30;99.90;;;;;;5061274;28;20391;-43
2023/03/07 12:08:57;;;;;;;5.88;0.40;;;6.40;99.90;;;;;;5038796;28;20068;-46
2023/03/07 12:11:40;;;;;;;5.55;0.20;;;6.40;99.90;;;;;;5059575;28;20694;-43
2023/03/07 12:14:35;;;;;;;7.15;0.50;;;6.20;99.90;;;;;;5060037;28;20043;-43
2023/03/07 12:17:31;;;;;;;5.53;0.43;;;6.20;99.90;;;;;;5059346;28;20041;-43
2023/03/07 12:20:02;;;;;;;9.10;0.60;;;6.10;99.90;;;;;;5048097;28;20041;-42
2023/03/07 12:22:48;;;;;;;5.40;0.47;;;6.60;99.90;;;;;;5058548;28;20048;-41
2023/03/07 12:25:23;;;;;;;6.18;0.28;;;6.00;99.90;;;;;;5060617;28;20079;-44
2023/03/07 12:28:11;;;;;;;9.85;0.85;;;6.40;99.90;;;;;;5060344;28;20434;-45
2023/03/07 12:30:52;;;;;;;9.63;2.35;;;5.70;99.90;;;;;;5042293;28;20841;-46
2023/03/07 12:33:42;;;;;;;4.40;0.32;;;6.10;99.90;;;;;;5060302;28;20528;-45
2023/03/07 12:36:19;;;;;;;3.08;0.20;;;5.30;99.90;;;;;;5060059;28;20057;-45
2023/03/07 12:38:54;;;;;;;5.72;0.30;;;5.90;99.90;;;;;;5060091;28;20044;-45
2023/03/07 12:41:52;;;;;;;3.22;0.55;;;5.30;99.90;;;;;;5060709;28;20044;-45
2023/03/07 12:44:32;;;;;;;3.25;0.25;;;5.40;99.90;;;;;;5060316;28;20386;-44
2023/03/07 12:47:14;;;;;;;5.00;0.28;;;5.40;99.90;;;;;;5059803;28;20048;-52
2023/03/07 12:49:52;;;;;;;4.03;0.50;;;5.30;99.90;;;;;;5060051;28;20136;-49
2023/03/07 12:52:44;;;;;;;4.03;0.43;;;4.90;99.90;;;;;;5059289;28;20294;-47
2023/03/07 12:55:16;;;;;;;;;;;5.20;99.90;;;;;;5059862;28;20044;-44
2023/03/07 12:58:20;;;;;;;12.20;0.65;;;5.00;99.90;;;;;;5059468;28;20349;-44
2023/03/07 13:00:52;;;;;;;4.82;0.20;;;4.90;99.90;;;;;;5059278;28;20089;-46
2023/03/07 13:03:30;;;;;;;5.35;0.30;;;4.90;99.90;;;;;;5060453;28;20052;-44
2023/03/07 13:05:56;;;;;;;2.03;0.20;;;5.00;99.90;;;;;;5059779;28;20642;-47
2023/03/07 13:08:23;;;;;;;4.30;0.20;;;5.00;99.90;;;;;;5039499;28;20122;-40